createdAt,value
2022-09-10T00:00:18.742Z,4.85
2022-09-10T00:02:48.239Z,5.70
2022-09-10T00:05:19.275Z,5.53
2022-09-10T00:07:49.459Z,6.10
2022-09-10T00:10:19.881Z,6.00
2022-09-10T00:12:50.457Z,7.30
2022-09-10T00:15:20.581Z,7.35
2022-09-10T00:17:50.803Z,6.87
2022-09-10T00:20:21.080Z,8.55
2022-09-10T00:22:51.497Z,10.85
2022-09-10T00:25:22.764Z,7.70
2022-09-10T00:27:53.231Z,6.58
2022-09-10T00:30:23.536Z,6.00
2022-09-10T00:32:54.281Z,5.70
2022-09-10T00:35:24.581Z,5.83
2022-09-10T00:37:57.761Z,5.15
2022-09-10T00:40:28.115Z,5.08
2022-09-10T00:42:58.462Z,5.90
2022-09-10T00:45:30.711Z,6.95
2022-09-10T00:48:02.332Z,4.28
2022-09-10T00:50:36.224Z,4.58
2022-09-10T00:53:10.687Z,4.47
2022-09-10T00:55:42.133Z,4.60
2022-09-10T00:58:13.884Z,6.30
2022-09-10T01:00:44.298Z,4.40
2022-09-10T01:03:15.977Z,3.75
2022-09-10T01:05:47.363Z,5.90
2022-09-10T01:08:18.334Z,4.87
2022-09-10T01:10:49.682Z,4.40
2022-09-10T01:13:21.673Z,4.35
2022-09-10T01:15:53.054Z,4.62
2022-09-10T01:18:24.546Z,4.35
2022-09-10T01:20:57.328Z,4.40
2022-09-10T01:23:27.165Z,4.25
2022-09-10T01:25:58.616Z,4.50
2022-09-10T01:28:30.235Z,3.60
2022-09-10T01:31:01.902Z,3.52
2022-09-10T01:33:33.183Z,3.08
2022-09-10T01:36:04.444Z,4.42
2022-09-10T01:38:37.274Z,3.92
2022-09-10T01:41:08.447Z,3.65
2022-09-10T01:43:38.766Z,3.55
2022-09-10T01:46:08.530Z,3.50
2022-09-10T01:48:41.092Z,3.37
2022-09-10T01:51:12.343Z,4.00
2022-09-10T01:53:43.615Z,3.20
2022-09-10T01:56:14.899Z,2.95
2022-09-10T01:58:45.894Z,3.67
2022-09-10T02:01:15.688Z,3.35
2022-09-10T02:03:48.096Z,2.90
2022-09-10T02:06:20.220Z,3.42
2022-09-10T02:08:51.508Z,3.22
2022-09-10T02:11:23.182Z,2.72
2022-09-10T02:13:53.332Z,2.98
2022-09-10T02:16:24.863Z,2.70
2022-09-10T02:18:55.482Z,3.20
2022-09-10T02:21:25.871Z,2.90
2022-09-10T02:23:58.024Z,3.20
2022-09-10T02:26:28.813Z,3.10
2022-09-10T02:28:59.029Z,2.60
2022-09-10T02:31:29.136Z,3.35
2022-09-10T02:33:59.762Z,4.20
2022-09-10T02:36:30.149Z,2.70
2022-09-10T02:39:01.588Z,3.30
2022-09-10T02:41:33.226Z,3.37
2022-09-10T02:44:03.820Z,2.95
2022-09-10T02:46:34.111Z,3.10
2022-09-10T02:49:05.010Z,3.05
2022-09-10T02:51:35.455Z,3.67
2022-09-10T02:54:05.957Z,3.15
2022-09-10T02:56:36.746Z,2.90
2022-09-10T02:59:07.443Z,3.15
2022-09-10T03:01:37.729Z,3.33
2022-09-10T03:04:08.391Z,3.15
2022-09-10T03:06:39.310Z,3.30
2022-09-10T03:09:09.633Z,2.87
2022-09-10T03:11:40.878Z,2.47
2022-09-10T03:14:12.233Z,3.22
2022-09-10T03:16:42.417Z,2.85
2022-09-10T03:19:12.901Z,2.90
2022-09-10T03:21:43.390Z,2.70
2022-09-10T03:24:15.318Z,2.40
2022-09-10T03:26:45.748Z,2.92
2022-09-10T03:29:16.859Z,4.67
2022-09-10T03:31:47.730Z,2.52
2022-09-10T03:34:17.894Z,2.90
2022-09-10T03:36:48.499Z,2.92
2022-09-10T03:39:20.069Z,2.20
2022-09-10T03:41:50.268Z,2.55
2022-09-10T03:44:20.871Z,2.58
2022-09-10T03:46:52.831Z,2.70
2022-09-10T03:49:24.037Z,2.42
2022-09-10T03:51:54.763Z,2.60
2022-09-10T03:54:24.979Z,2.90
2022-09-10T03:56:55.116Z,2.30
2022-09-10T03:59:25.223Z,2.40
2022-09-10T04:01:55.616Z,2.60
2022-09-10T04:04:25.798Z,2.27
2022-09-10T04:06:55.831Z,2.90
2022-09-10T04:09:26.068Z,3.10
2022-09-10T04:11:56.303Z,2.35
2022-09-10T04:14:27.651Z,2.58
2022-09-10T04:16:59.684Z,2.52
2022-09-10T04:19:30.226Z,2.75
2022-09-10T04:22:00.674Z,2.60
2022-09-10T04:24:30.973Z,2.37
2022-09-10T04:27:02.831Z,2.15
2022-09-10T04:29:33.341Z,2.12
2022-09-10T04:32:04.458Z,2.55
2022-09-10T04:34:34.432Z,2.42
2022-09-10T04:37:04.533Z,2.20
2022-09-10T04:39:53.940Z,2.15
2022-09-10T04:42:24.089Z,2.60
2022-09-10T04:44:54.552Z,2.65
2022-09-10T04:47:24.556Z,2.58
2022-09-10T04:49:54.672Z,2.40
2022-09-10T04:52:25.383Z,2.10
2022-09-10T04:54:55.563Z,1.80
2022-09-10T04:57:27.156Z,2.02
2022-09-10T04:59:58.189Z,1.70
2022-09-10T05:02:28.331Z,1.67
2022-09-10T05:04:59.014Z,1.62
2022-09-10T05:07:29.241Z,1.82
2022-09-10T05:09:59.747Z,1.70
2022-09-10T05:12:30.277Z,1.65
2022-09-10T05:15:04.502Z,1.90
2022-09-10T05:17:34.952Z,2.02
2022-09-10T05:20:07.400Z,1.77
2022-09-10T05:22:40.649Z,1.82
2022-09-10T05:25:09.191Z,1.92
2022-09-10T05:27:39.280Z,1.60
2022-09-10T05:30:09.673Z,1.60
2022-09-10T05:32:41.375Z,1.70
2022-09-10T05:35:12.996Z,1.57
2022-09-10T05:37:43.772Z,1.57
2022-09-10T05:40:17.146Z,1.85
2022-09-10T05:42:47.863Z,2.00
2022-09-10T05:45:20.143Z,1.87
2022-09-10T05:47:51.583Z,2.10
2022-09-10T05:50:23.046Z,1.62
2022-09-10T05:52:54.243Z,1.90
2022-09-10T05:55:25.129Z,2.15
2022-09-10T05:57:57.397Z,2.58
2022-09-10T06:00:28.237Z,2.47
2022-09-10T06:02:59.360Z,2.33
2022-09-10T06:05:30.799Z,2.45
2022-09-10T06:08:05.402Z,2.12
2022-09-10T06:10:36.741Z,2.10
2022-09-10T06:13:08.711Z,2.30
2022-09-10T06:15:41.168Z,2.42
2022-09-10T06:18:11.897Z,2.25
2022-09-10T06:20:42.495Z,2.47
2022-09-10T06:23:13.367Z,2.10
2022-09-10T06:25:44.656Z,2.02
2022-09-10T06:28:16.181Z,2.20
2022-09-10T06:30:46.910Z,2.00
2022-09-10T06:33:18.020Z,2.10
2022-09-10T06:35:53.613Z,2.10
2022-09-10T06:38:24.130Z,1.95
2022-09-10T06:40:56.884Z,1.80
2022-09-10T06:43:28.207Z,1.92
2022-09-10T06:45:59.435Z,2.20
2022-09-10T06:48:38.660Z,2.10
2022-09-10T06:51:03.471Z,2.37
2022-09-10T06:53:34.895Z,1.92
2022-09-10T06:56:07.099Z,2.27
2022-09-10T06:58:38.884Z,1.92
2022-09-10T07:01:13.630Z,1.77
2022-09-10T07:03:45.939Z,1.98
2022-09-10T07:06:18.746Z,1.90
2022-09-10T07:08:49.455Z,1.80
2022-09-10T07:11:20.343Z,2.02
2022-09-10T07:13:53.405Z,2.47
2022-09-10T07:16:26.049Z,2.15
2022-09-10T07:18:59.320Z,2.12
2022-09-10T07:21:31.523Z,2.20
2022-09-10T07:24:03.534Z,2.08
2022-09-10T07:26:34.639Z,1.90
2022-09-10T07:29:05.840Z,2.20
2022-09-10T07:31:39.554Z,2.30
2022-09-10T07:34:10.275Z,2.20
2022-09-10T07:36:40.989Z,2.47
2022-09-10T07:39:12.796Z,1.77
2022-09-10T07:41:44.226Z,2.00
2022-09-10T07:44:15.263Z,1.80
2022-09-10T07:46:47.572Z,2.27
2022-09-10T07:49:18.565Z,2.00
2022-09-10T07:51:49.622Z,2.22
2022-09-10T07:54:20.789Z,2.02
2022-09-10T07:56:51.989Z,2.17
2022-09-10T07:59:22.732Z,2.20
2022-09-10T08:01:53.801Z,2.20
2022-09-10T08:04:24.867Z,2.58
2022-09-10T08:06:55.967Z,2.50
2022-09-10T08:09:27.492Z,2.10
2022-09-10T08:11:58.457Z,2.30
2022-09-10T08:14:29.271Z,1.98
2022-09-10T08:17:00.083Z,2.60
2022-09-10T08:19:31.603Z,2.40
2022-09-10T08:22:02.582Z,2.17
2022-09-10T08:24:33.365Z,2.05
2022-09-10T08:27:04.826Z,2.22
2022-09-10T08:29:36.264Z,1.35
2022-09-10T08:32:07.425Z,1.62
2022-09-10T08:34:39.066Z,1.30
2022-09-10T08:37:10.246Z,1.92
2022-09-10T08:39:40.918Z,1.50
2022-09-10T08:42:14.748Z,1.30
2022-09-10T08:44:49.887Z,1.30
2022-09-10T08:47:23.344Z,1.98
2022-09-10T08:49:56.691Z,1.32
2022-09-10T08:52:30.347Z,1.40
2022-09-10T08:55:03.519Z,1.50
2022-09-10T08:57:36.920Z,1.42
2022-09-10T09:00:09.993Z,1.52
2022-09-10T09:02:49.325Z,1.52
2022-09-10T09:05:16.118Z,2.05
2022-09-10T09:07:48.233Z,1.72
2022-09-10T09:10:21.433Z,2.00
2022-09-10T09:12:54.899Z,1.75
2022-09-10T09:15:28.340Z,1.50
2022-09-10T09:18:01.675Z,1.60
2022-09-10T09:20:34.572Z,1.70
2022-09-10T09:23:06.584Z,1.77
2022-09-10T09:25:39.921Z,1.62
2022-09-10T09:28:13.078Z,1.40
2022-09-10T09:30:47.403Z,1.45
2022-09-10T09:33:20.670Z,1.95
2022-09-10T09:35:54.754Z,1.60
2022-09-10T09:38:28.349Z,1.40
2022-09-10T09:41:01.748Z,1.37
2022-09-10T09:43:34.991Z,1.10
2022-09-10T09:46:07.778Z,1.47
2022-09-10T09:48:41.423Z,1.12
2022-09-10T09:51:14.561Z,1.77
2022-09-10T09:53:48.402Z,1.40
2022-09-10T09:56:20.821Z,1.32
2022-09-10T09:58:53.417Z,2.10
2022-09-10T10:01:26.889Z,2.00
2022-09-10T10:04:00.637Z,2.12
2022-09-10T10:06:34.021Z,1.60
2022-09-10T10:09:07.365Z,2.12
2022-09-10T10:11:40.505Z,2.10
2022-09-10T10:14:13.899Z,1.80
2022-09-10T10:16:45.106Z,1.90
2022-09-10T10:19:18.435Z,2.15
2022-09-10T10:21:49.034Z,2.12
2022-09-10T10:24:22.540Z,2.50
2022-09-10T10:26:53.570Z,2.37
2022-09-10T10:29:24.492Z,2.50
2022-09-10T10:31:57.326Z,2.75
2022-09-10T10:34:29.654Z,2.52
2022-09-10T10:37:01.199Z,2.08
2022-09-10T10:39:34.477Z,3.05
2022-09-10T10:42:06.189Z,2.85
2022-09-10T10:44:37.846Z,3.08
2022-09-10T10:47:10.748Z,3.10
2022-09-10T10:49:43.991Z,2.60
2022-09-10T10:52:16.635Z,2.20
2022-09-10T10:54:49.796Z,2.52
2022-09-10T10:57:23.047Z,2.98
2022-09-10T10:59:56.248Z,2.75
2022-09-10T11:02:27.859Z,2.92
2022-09-10T11:05:01.229Z,2.65
2022-09-10T11:07:34.485Z,3.85
2022-09-10T11:10:08.141Z,2.37
2022-09-10T11:12:41.299Z,2.87
2022-09-10T11:15:14.416Z,3.02
2022-09-10T11:17:49.420Z,3.20
2022-09-10T11:20:28.837Z,3.47
2022-09-10T11:22:58.520Z,3.00
2022-09-10T11:25:30.550Z,2.85
2022-09-10T11:28:04.960Z,2.98
2022-09-10T11:30:37.463Z,2.50
2022-09-10T11:33:10.921Z,2.40
2022-09-10T11:35:44.152Z,2.90
2022-09-10T11:38:19.060Z,2.90
2022-09-10T11:40:53.787Z,2.72
2022-09-10T11:43:28.314Z,3.08
2022-09-10T11:46:01.483Z,3.10
2022-09-10T11:48:35.111Z,3.92
2022-09-10T11:51:08.802Z,3.50
2022-09-10T11:53:39.816Z,2.37
2022-09-10T11:56:11.559Z,2.55
2022-09-10T11:58:44.686Z,3.30
2022-09-10T12:01:18.040Z,4.17
2022-09-10T12:03:51.622Z,3.30
2022-09-10T12:06:25.196Z,3.58
2022-09-10T12:08:58.459Z,2.42
2022-09-10T12:11:30.679Z,2.70
2022-09-10T12:14:01.859Z,2.77
2022-09-10T12:16:33.881Z,2.87
2022-09-10T12:19:08.327Z,2.33
2022-09-10T12:21:44.414Z,2.45
2022-09-10T12:24:17.434Z,2.60
2022-09-10T12:26:48.278Z,2.55
2022-09-10T12:29:21.566Z,2.12
2022-09-10T12:31:56.143Z,2.55
2022-09-10T12:34:41.347Z,2.50
2022-09-10T12:37:11.528Z,2.20
2022-09-10T12:39:44.039Z,2.45
2022-09-10T12:42:24.888Z,2.40
2022-09-10T12:44:55.489Z,2.80
2022-09-10T12:47:33.736Z,2.27
2022-09-10T12:50:13.408Z,2.00
2022-09-10T12:52:48.517Z,2.37
2022-09-10T12:55:24.774Z,2.60
2022-09-10T12:57:59.453Z,2.90
2022-09-10T13:00:33.580Z,4.00
2022-09-10T13:03:09.190Z,3.60
2022-09-10T13:05:54.089Z,3.92
2022-09-10T13:08:42.280Z,4.28
2022-09-10T13:11:14.220Z,3.72
2022-09-10T13:16:34.263Z,3.90
2022-09-10T13:19:10.291Z,3.60
2022-09-10T13:21:41.245Z,4.12
2022-09-10T13:24:17.659Z,3.22
2022-09-10T13:27:03.087Z,3.72
2022-09-10T13:29:36.658Z,3.95
2022-09-10T13:32:12.318Z,4.10
2022-09-10T13:34:44.459Z,3.80
2022-09-10T13:37:53.363Z,4.12
2022-09-10T13:40:13.965Z,4.10
2022-09-10T13:42:49.221Z,4.35
2022-09-10T13:48:18.883Z,4.05
2022-09-10T13:51:02.289Z,4.03
2022-09-10T13:53:30.327Z,4.40
2022-09-10T13:56:03.675Z,3.90
2022-09-10T13:58:36.976Z,4.03
2022-09-10T14:03:59.596Z,4.08
2022-09-10T14:06:31.695Z,3.62
2022-09-10T14:09:06.333Z,4.05
2022-09-10T14:14:40.554Z,5.12
2022-09-10T14:17:47.301Z,4.00
2022-09-10T14:19:50.714Z,4.55
2022-09-10T14:22:28.002Z,4.60
2022-09-10T14:25:01.100Z,4.45
2022-09-10T14:27:34.541Z,4.83
2022-09-10T14:30:09.111Z,4.50
2022-09-10T14:32:41.143Z,4.50
2022-09-10T14:35:14.407Z,4.72
2022-09-10T14:37:45.297Z,4.17
2022-09-10T14:40:18.960Z,4.10
2022-09-10T14:42:51.910Z,4.15
2022-09-10T14:45:26.309Z,3.83
2022-09-10T14:47:57.014Z,3.98
2022-09-10T14:50:31.565Z,4.15
2022-09-10T14:53:02.998Z,3.25
2022-09-10T14:55:35.313Z,3.72
2022-09-10T14:58:07.864Z,3.95
2022-09-10T15:00:38.610Z,3.52
2022-09-10T15:03:11.167Z,4.00
2022-09-10T15:05:41.852Z,3.87
2022-09-10T15:08:12.740Z,3.70
2022-09-10T15:10:46.339Z,4.47
2022-09-10T15:13:19.999Z,5.70
2022-09-10T15:15:55.213Z,7.70
2022-09-10T15:18:26.639Z,24.43
2022-09-10T15:20:57.670Z,27.65
2022-09-10T15:23:29.531Z,21.48
2022-09-10T15:26:02.169Z,13.80
2022-09-10T15:28:33.133Z,8.95
2022-09-10T15:31:03.829Z,8.10
2022-09-10T15:33:34.721Z,8.00
2022-09-10T15:36:06.204Z,10.10
2022-09-10T15:38:37.215Z,9.80
2022-09-10T15:41:12.509Z,6.97
2022-09-10T15:43:45.167Z,5.78
2022-09-10T15:46:19.862Z,4.60
2022-09-10T15:48:51.172Z,4.75
2022-09-10T15:51:24.723Z,4.80
2022-09-10T15:53:57.255Z,5.08
2022-09-10T15:56:29.040Z,4.97
2022-09-10T15:59:01.230Z,5.05
2022-09-10T16:01:32.193Z,4.95
2022-09-10T16:04:05.116Z,4.67
2022-09-10T16:06:38.060Z,3.87
2022-09-10T16:09:11.482Z,3.55
2022-09-10T16:11:44.295Z,4.25
2022-09-10T16:14:18.439Z,4.50
2022-09-10T16:16:49.879Z,4.47
2022-09-10T16:19:22.129Z,4.03
2022-09-10T16:21:54.229Z,4.05
2022-09-10T16:24:24.953Z,4.65
2022-09-10T16:26:55.700Z,4.83
2022-09-10T16:29:26.631Z,5.10
2022-09-10T16:31:57.847Z,4.97
2022-09-10T16:34:28.802Z,5.47
2022-09-10T16:36:59.741Z,5.15
2022-09-10T16:39:30.782Z,5.15
2022-09-10T16:42:01.619Z,4.70
2022-09-10T16:44:34.680Z,4.30
2022-09-10T16:47:05.037Z,4.17
2022-09-10T16:49:35.922Z,4.22
2022-09-10T16:52:06.620Z,4.58
2022-09-10T16:54:38.771Z,3.87
2022-09-10T16:57:09.684Z,3.87
2022-09-10T16:59:41.878Z,3.75
2022-09-10T17:02:13.331Z,3.67
2022-09-10T17:04:43.998Z,4.45
2022-09-10T17:07:14.957Z,3.72
2022-09-10T17:09:48.595Z,5.22
2022-09-10T17:12:19.441Z,6.92
2022-09-10T17:14:50.937Z,5.75
2022-09-10T17:17:21.786Z,7.28
2022-09-10T17:19:52.549Z,6.97
2022-09-10T17:22:24.030Z,8.65
2022-09-10T17:24:55.264Z,9.48
2022-09-10T17:27:26.100Z,9.33
2022-09-10T17:29:56.734Z,6.45
2022-09-10T17:32:27.977Z,6.05
2022-09-10T17:34:58.721Z,5.25
2022-09-10T17:37:29.907Z,5.75
2022-09-10T17:40:00.663Z,5.50
2022-09-10T17:42:31.536Z,4.92
2022-09-10T17:45:03.752Z,5.55
2022-09-10T17:47:35.482Z,5.25
2022-09-10T17:50:06.896Z,5.17
2022-09-10T17:52:37.678Z,4.37
2022-09-10T17:55:08.700Z,4.75
2022-09-10T17:57:39.554Z,4.62
2022-09-10T18:00:11.896Z,4.97
2022-09-10T18:02:42.852Z,5.42
2022-09-10T18:05:13.586Z,6.78
2022-09-10T18:07:45.857Z,4.70
2022-09-10T18:10:17.450Z,5.62
2022-09-10T18:12:48.301Z,7.28
2022-09-10T18:15:20.507Z,5.20
2022-09-10T18:17:51.240Z,5.83
2022-09-10T18:20:22.182Z,7.12
2022-09-10T18:22:53.257Z,7.47
2022-09-10T18:25:24.879Z,7.35
2022-09-10T18:27:56.195Z,6.70
2022-09-10T18:30:27.703Z,5.47
2022-09-10T18:32:59.071Z,4.40
2022-09-10T18:35:29.724Z,5.30
2022-09-10T18:38:00.587Z,5.78
2022-09-10T18:40:40.353Z,5.40
2022-09-10T18:43:12.113Z,5.95
2022-09-10T18:45:43.851Z,7.05
2022-09-10T18:48:14.648Z,6.28
2022-09-10T18:50:45.427Z,6.22
2022-09-10T18:53:16.882Z,6.00
2022-09-10T18:55:49.022Z,8.00
2022-09-10T18:58:21.219Z,7.97
2022-09-10T19:00:54.363Z,9.45
2022-09-10T19:03:24.619Z,8.85
2022-09-10T19:05:55.232Z,8.85
2022-09-10T19:08:26.191Z,7.17
2022-09-10T19:11:00.070Z,5.67
2022-09-10T19:13:31.771Z,5.30
2022-09-10T19:16:05.573Z,4.87
2022-09-10T19:18:37.667Z,4.60
2022-09-10T19:21:09.797Z,4.05
2022-09-10T19:23:41.225Z,2.95
2022-09-10T19:26:13.368Z,2.67
2022-09-10T19:28:44.664Z,3.30
2022-09-10T19:31:18.002Z,2.83
2022-09-10T19:33:50.276Z,2.67
2022-09-10T19:36:21.066Z,2.80
2022-09-10T19:38:52.205Z,2.33
2022-09-10T19:41:23.969Z,2.70
2022-09-10T19:43:56.563Z,3.02
2022-09-10T19:46:29.835Z,3.10
2022-09-10T19:49:02.702Z,3.45
2022-09-10T19:51:35.739Z,2.77
2022-09-10T19:54:08.014Z,2.37
2022-09-10T19:56:43.974Z,2.40
2022-09-10T19:59:15.896Z,2.55
2022-09-10T20:01:47.129Z,2.20
2022-09-10T20:04:18.270Z,2.60
2022-09-10T20:06:50.458Z,2.30
2022-09-10T20:09:21.496Z,2.87
2022-09-10T20:11:52.573Z,2.55
2022-09-10T20:14:23.271Z,2.83
2022-09-10T20:16:55.578Z,2.45
2022-09-10T20:19:26.582Z,2.55
2022-09-10T20:21:57.234Z,2.60
2022-09-10T20:24:29.519Z,2.60
2022-09-10T20:27:00.371Z,2.50
2022-09-10T20:29:32.699Z,2.90
2022-09-10T20:32:03.741Z,2.83
2022-09-10T20:34:36.265Z,3.30
2022-09-10T20:37:07.154Z,4.00
2022-09-10T20:39:40.178Z,4.67
2022-09-10T20:42:12.568Z,5.80
2022-09-10T20:44:43.471Z,6.03
2022-09-10T20:47:15.117Z,8.00
2022-09-10T20:49:45.955Z,8.80
2022-09-10T20:52:16.781Z,9.48
2022-09-10T20:54:49.562Z,8.43
2022-09-10T20:57:21.633Z,7.83
2022-09-10T20:59:53.520Z,8.58
2022-09-10T21:02:24.811Z,9.20
2022-09-10T21:04:55.873Z,9.18
2022-09-10T21:07:26.813Z,8.60
2022-09-10T21:09:58.060Z,8.43
2022-09-10T21:12:29.102Z,8.33
2022-09-10T21:14:59.826Z,8.43
2022-09-10T21:17:32.248Z,7.87
2022-09-10T21:20:04.178Z,7.30
2022-09-10T21:22:34.822Z,6.60
2022-09-10T21:25:05.947Z,6.03
2022-09-10T21:27:36.824Z,6.37
2022-09-10T21:30:08.440Z,6.12
2022-09-10T21:32:39.201Z,5.90
2022-09-10T21:35:10.487Z,6.70
2022-09-10T21:37:41.564Z,6.55
2022-09-10T21:40:12.948Z,5.53
2022-09-10T21:42:47.439Z,6.22
2022-09-10T21:45:20.075Z,5.72
2022-09-10T21:47:52.799Z,5.70
2022-09-10T21:50:23.628Z,5.45
2022-09-10T21:52:54.472Z,5.10
2022-09-10T21:55:25.317Z,4.85
2022-09-10T21:57:56.251Z,4.42
2022-09-10T22:00:28.414Z,5.30
2022-09-10T22:02:59.277Z,6.30
2022-09-10T22:05:30.071Z,7.47
2022-09-10T22:08:00.820Z,5.83
2022-09-10T22:10:33.093Z,5.55
2022-09-10T22:13:04.137Z,4.90
2022-09-10T22:15:36.115Z,5.62
2022-09-10T22:18:06.817Z,5.22
2022-09-10T22:20:39.172Z,4.87
2022-09-10T22:23:09.776Z,4.70
2022-09-10T22:25:40.436Z,3.40
2022-09-10T22:28:11.354Z,3.95
2022-09-10T22:30:43.545Z,3.92
2022-09-10T22:33:15.644Z,4.60
2022-09-10T22:35:47.182Z,4.47
2022-09-10T22:38:19.651Z,4.10
2022-09-10T22:40:49.884Z,3.80
2022-09-10T22:43:20.597Z,3.05
2022-09-10T22:45:51.207Z,2.95
2022-09-10T22:48:25.066Z,3.30
2022-09-10T22:50:56.544Z,3.08
2022-09-10T22:53:27.212Z,2.62
2022-09-10T22:55:59.397Z,3.33
2022-09-10T22:58:31.385Z,2.08
2022-09-10T23:01:06.487Z,2.15
2022-09-10T23:03:36.865Z,1.87
2022-09-10T23:06:08.368Z,1.72
2022-09-10T23:08:40.723Z,1.60
2022-09-10T23:11:13.217Z,1.80
2022-09-10T23:13:49.562Z,1.87
2022-09-10T23:16:19.808Z,1.72
2022-09-10T23:18:52.845Z,2.10
2022-09-10T23:21:28.570Z,7.55
2022-09-10T23:24:01.254Z,8.20
2022-09-10T23:26:33.186Z,4.80
2022-09-10T23:29:06.202Z,2.80
2022-09-10T23:31:41.749Z,2.37
2022-09-10T23:34:14.877Z,2.30
2022-09-10T23:36:47.889Z,1.95
2022-09-10T23:39:22.653Z,2.80
2022-09-10T23:41:55.595Z,2.40
2022-09-10T23:44:27.300Z,3.70
2022-09-10T23:46:58.766Z,4.05
2022-09-10T23:49:29.499Z,3.05
2022-09-10T23:52:00.230Z,3.20
2022-09-10T23:54:31.454Z,2.52
2022-09-10T23:57:03.538Z,7.00
2022-09-10T23:59:34.498Z,2.33
